sensor_id;sensor_type;location;lat;lon;timestamp;pressure;altitude;pressure_sealevel;temperature;humidity
17615;BME280;8926;49.720;6.576;2023-03-01T00:01:58;100788.41;;;1.11;nan
17615;BME280;8926;49.720;6.576;2023-03-01T00:04:23;100786.69;;;1.04;59.74
17615;BME280;8926;49.720;6.576;2023-03-01T00:06:48;100784.09;;;1.07;58.92
17615;BME280;8926;49.720;6.576;2023-03-01T00:09:14;100786.72;;;0.98;59.42
17615;BME280;8926;49.720;6.576;2023-03-01T00:11:40;100794.44;;;0.90;61.32
17615;BME280;8926;49.720;6.576;2023-03-01T00:14:05;100793.56;;;0.90;61.12
17615;BME280;8926;49.720;6.576;2023-03-01T00:16:37;100797.00;;;0.92;61.08
17615;BME280;8926;49.720;6.576;2023-03-01T00:19:05;100785.84;;;0.96;60.03
17615;BME280;8926;49.720;6.576;2023-03-01T00:21:31;100793.56;;;0.96;59.68
17615;BME280;8926;49.720;6.576;2023-03-01T00:23:57;100783.28;;;0.96;59.96
17615;BME280;8926;49.720;6.576;2023-03-01T00:26:23;100785.00;;;0.97;59.79
17615;BME280;8926;49.720;6.576;2023-03-01T00:28:49;100794.44;;;0.95;59.96
17615;BME280;8926;49.720;6.576;2023-03-01T00:31:21;100792.72;;;0.97;60.37
17615;BME280;8926;49.720;6.576;2023-03-01T00:33:47;100800.44;;;0.97;60.36
17615;BME280;8926;49.720;6.576;2023-03-01T00:36:14;100803.84;;;0.91;61.61
17615;BME280;8926;49.720;6.576;2023-03-01T00:38:42;100797.00;;;0.95;60.49
17615;BME280;8926;49.720;6.576;2023-03-01T00:41:10;100793.56;;;0.93;60.61
17615;BME280;8926;49.720;6.576;2023-03-01T00:43:36;100780.72;;;0.96;60.20
17615;BME280;8926;49.720;6.576;2023-03-01T00:46:08;100787.56;;;0.98;59.91
17615;BME280;8926;49.720;6.576;2023-03-01T00:48:34;100790.16;;;1.00;60.29
17615;BME280;8926;49.720;6.576;2023-03-01T00:51:24;100785.00;;;1.03;59.76
17615;BME280;8926;49.720;6.576;2023-03-01T00:53:52;100785.84;;;1.02;59.71
17615;BME280;8926;49.720;6.576;2023-03-01T00:56:18;100787.56;;;1.01;59.68
17615;BME280;8926;49.720;6.576;2023-03-01T00:58:43;100790.16;;;0.97;60.64
17615;BME280;8926;49.720;6.576;2023-03-01T01:01:17;100785.84;;;0.91;61.44
17615;BME280;8926;49.720;6.576;2023-03-01T01:03:54;100798.72;;;0.87;61.21
17615;BME280;8926;49.720;6.576;2023-03-01T01:06:32;100795.28;;;0.85;61.60
17615;BME280;8926;49.720;6.576;2023-03-01T01:08:58;100793.56;;;0.84;60.40
17615;BME280;8926;49.720;6.576;2023-03-01T01:11:26;100791.00;;;0.88;60.08
17615;BME280;8926;49.720;6.576;2023-03-01T01:13:52;100797.00;;;0.92;60.70
17615;BME280;8926;49.720;6.576;2023-03-01T01:16:19;100797.00;;;0.92;60.81
17615;BME280;8926;49.720;6.576;2023-03-01T01:18:45;100791.00;;;0.90;61.02
17615;BME280;8926;49.720;6.576;2023-03-01T01:21:13;100787.56;;;0.89;59.96
17615;BME280;8926;49.720;6.576;2023-03-01T01:23:39;100783.28;;;0.84;60.56
17615;BME280;8926;49.720;6.576;2023-03-01T01:26:26;100781.56;;;0.83;61.32
17615;BME280;8926;49.720;6.576;2023-03-01T01:28:52;100778.16;;;0.78;62.23
17615;BME280;8926;49.720;6.576;2023-03-01T01:31:19;100778.16;;;0.72;62.28
17615;BME280;8926;49.720;6.576;2023-03-01T01:33:45;100769.59;;;0.70;61.66
17615;BME280;8926;49.720;6.576;2023-03-01T01:36:11;100773.88;;;0.67;61.06
17615;BME280;8926;49.720;6.576;2023-03-01T01:38:37;100779.88;;;0.70;61.93
17615;BME280;8926;49.720;6.576;2023-03-01T01:41:03;100774.72;;;0.66;62.66
17615;BME280;8926;49.720;6.576;2023-03-01T01:43:35;100766.16;;;0.64;62.55
17615;BME280;8926;49.720;6.576;2023-03-01T01:46:04;100767.88;;;0.65;62.87
17615;BME280;8926;49.720;6.576;2023-03-01T01:48:39;100753.28;;;0.66;61.97
17615;BME280;8926;49.720;6.576;2023-03-01T01:51:09;100755.88;;;0.67;62.43
17615;BME280;8926;49.720;6.576;2023-03-01T01:53:37;100748.16;;;0.67;62.37
17615;BME280;8926;49.720;6.576;2023-03-01T01:56:03;100747.31;;;0.75;61.24
17615;BME280;8926;49.720;6.576;2023-03-01T01:58:31;100734.44;;;0.68;62.79
17615;BME280;8926;49.720;6.576;2023-03-01T02:00:56;100734.44;;;0.68;60.77
17615;BME280;8926;49.720;6.576;2023-03-01T02:03:28;100732.72;;;0.64;61.73
17615;BME280;8926;49.720;6.576;2023-03-01T02:06:03;100726.72;;;0.62;62.49
17615;BME280;8926;49.720;6.576;2023-03-01T02:08:32;100720.72;;;0.60;62.55
17615;BME280;8926;49.720;6.576;2023-03-01T02:10:58;100718.16;;;0.60;62.63
17615;BME280;8926;49.720;6.576;2023-03-01T02:13:25;100710.44;;;0.56;62.18
17615;BME280;8926;49.720;6.576;2023-03-01T02:15:50;100701.00;;;0.53;61.89
17615;BME280;8926;49.720;6.576;2023-03-01T02:18:18;100701.03;;;0.50;62.18
17615;BME280;8926;49.720;6.576;2023-03-01T02:21:51;100699.31;;;0.46;63.62
17615;BME280;8926;49.720;6.576;2023-03-01T02:23:44;100694.19;;;0.49;62.73
17615;BME280;8926;49.720;6.576;2023-03-01T02:28:44;100682.19;;;0.48;63.33
17615;BME280;8926;49.720;6.576;2023-03-01T02:31:11;100682.19;;;0.48;63.58
17615;BME280;8926;49.720;6.576;2023-03-01T02:33:58;100683.91;;;0.49;63.55
17615;BME280;8926;49.720;6.576;2023-03-01T02:36:27;100689.03;;;0.46;63.68
17615;BME280;8926;49.720;6.576;2023-03-01T02:38:58;100690.75;;;0.35;63.55
17615;BME280;8926;49.720;6.576;2023-03-01T02:41:26;100682.19;;;0.30;63.67
17615;BME280;8926;49.720;6.576;2023-03-01T02:43:53;100683.91;;;0.34;63.34
17615;BME280;8926;49.720;6.576;2023-03-01T02:46:22;100682.19;;;0.36;63.94
17615;BME280;8926;49.720;6.576;2023-03-01T02:48:50;100691.59;;;0.34;64.05
17615;BME280;8926;49.720;6.576;2023-03-01T02:51:42;100694.16;;;0.28;64.01
17615;BME280;8926;49.720;6.576;2023-03-01T02:54:30;100687.34;;;0.22;65.21
17615;BME280;8926;49.720;6.576;2023-03-01T02:56:59;100697.63;;;0.25;64.33
17615;BME280;8926;49.720;6.576;2023-03-01T02:59:28;100687.31;;;0.36;64.46
17615;BME280;8926;49.720;6.576;2023-03-01T03:01:55;100680.47;;;0.38;62.51
17615;BME280;8926;49.720;6.576;2023-03-01T03:04:20;100685.59;;;0.32;63.24
17615;BME280;8926;49.720;6.576;2023-03-01T03:06:48;100685.63;;;0.35;62.85
17615;BME280;8926;49.720;6.576;2023-03-01T03:09:14;100689.03;;;0.37;63.12
17615;BME280;8926;49.720;6.576;2023-03-01T03:11:40;100681.31;;;0.32;65.08
17615;BME280;8926;49.720;6.576;2023-03-01T03:14:07;100684.75;;;0.33;64.50
17615;BME280;8926;49.720;6.576;2023-03-01T03:16:40;100676.19;;;0.37;63.79
17615;BME280;8926;49.720;6.576;2023-03-01T03:19:05;100677.91;;;0.43;62.75
17615;BME280;8926;49.720;6.576;2023-03-01T03:21:32;100672.75;;;0.35;63.48
17615;BME280;8926;49.720;6.576;2023-03-01T03:23:58;100665.06;;;0.38;62.92
17615;BME280;8926;49.720;6.576;2023-03-01T03:26:23;100654.78;;;0.41;63.71
17615;BME280;8926;49.720;6.576;2023-03-01T03:28:49;100658.19;;;0.37;64.46
17615;BME280;8926;49.720;6.576;2023-03-01T03:31:14;100649.63;;;0.35;64.49
17615;BME280;8926;49.720;6.576;2023-03-01T03:33:39;100650.50;;;0.37;64.15
17615;BME280;8926;49.720;6.576;2023-03-01T03:36:05;100661.63;;;0.42;64.30
17615;BME280;8926;49.720;6.576;2023-03-01T03:38:30;100650.50;;;0.42;64.29
17615;BME280;8926;49.720;6.576;2023-03-01T03:41:04;100647.91;;;0.40;64.24
17615;BME280;8926;49.720;6.576;2023-03-01T03:43:32;100649.63;;;0.41;63.21
17615;BME280;8926;49.720;6.576;2023-03-01T03:45:58;100646.22;;;0.42;63.36
17615;BME280;8926;49.720;6.576;2023-03-01T03:48:24;100641.06;;;0.39;64.02
17615;BME280;8926;49.720;6.576;2023-03-01T03:50:52;100639.34;;;0.38;65.31
17615;BME280;8926;49.720;6.576;2023-03-01T03:53:18;100639.34;;;0.41;63.71
17615;BME280;8926;49.720;6.576;2023-03-01T03:55:43;100640.22;;;0.40;65.08
17615;BME280;8926;49.720;6.576;2023-03-01T03:58:10;100634.22;;;0.44;63.05
17615;BME280;8926;49.720;6.576;2023-03-01T04:00:40;100633.34;;;0.44;63.13
17615;BME280;8926;49.720;6.576;2023-03-01T04:03:07;100629.06;;;0.38;65.21
17615;BME280;8926;49.720;6.576;2023-03-01T04:05:33;100635.94;;;0.39;63.59
17615;BME280;8926;49.720;6.576;2023-03-01T04:07:59;100632.50;;;0.37;63.01
17615;BME280;8926;49.720;6.576;2023-03-01T04:13:01;100629.06;;;0.29;64.74
17615;BME280;8926;49.720;6.576;2023-03-01T04:15:27;100625.66;;;0.30;65.02
17615;BME280;8926;49.720;6.576;2023-03-01T04:17:53;100630.78;;;0.36;65.36
17615;BME280;8926;49.720;6.576;2023-03-01T04:20:24;100635.06;;;0.40;65.22
17615;BME280;8926;49.720;6.576;2023-03-01T04:22:58;100631.66;;;0.40;64.85
17615;BME280;8926;49.720;6.576;2023-03-01T04:25:24;100630.78;;;0.39;65.77
17615;BME280;8926;49.720;6.576;2023-03-01T04:27:49;100630.78;;;0.42;65.00
17615;BME280;8926;49.720;6.576;2023-03-01T04:30:14;100624.78;;;0.45;65.21
17615;BME280;8926;49.720;6.576;2023-03-01T04:32:40;100630.78;;;0.45;64.58
17615;BME280;8926;49.720;6.576;2023-03-01T04:35:06;100623.94;;;0.47;65.23
17615;BME280;8926;49.720;6.576;2023-03-01T04:37:31;100619.66;;;0.46;64.27
17615;BME280;8926;49.720;6.576;2023-03-01T04:39:56;100628.22;;;0.47;64.34
17615;BME280;8926;49.720;6.576;2023-03-01T04:42:22;100620.50;;;0.45;64.26
17615;BME280;8926;49.720;6.576;2023-03-01T04:44:48;100615.38;;;0.45;64.79
17615;BME280;8926;49.720;6.576;2023-03-01T04:47:16;100617.06;;;0.46;64.29
17615;BME280;8926;49.720;6.576;2023-03-01T04:49:41;100617.06;;;0.46;64.40
17615;BME280;8926;49.720;6.576;2023-03-01T04:52:07;100617.09;;;0.43;64.29
17615;BME280;8926;49.720;6.576;2023-03-01T04:54:33;100620.50;;;0.48;65.14
17615;BME280;8926;49.720;6.576;2023-03-01T04:56:59;100623.03;;;0.59;67.12
17615;BME280;8926;49.720;6.576;2023-03-01T04:59:25;100611.88;;;0.67;66.21
17615;BME280;8926;49.720;6.576;2023-03-01T05:01:54;100606.72;;;0.77;66.04
17615;BME280;8926;49.720;6.576;2023-03-01T05:04:23;100607.59;;;0.77;66.13
17615;BME280;8926;49.720;6.576;2023-03-01T05:06:49;100606.72;;;0.74;66.17
17615;BME280;8926;49.720;6.576;2023-03-01T05:09:14;100615.31;;;0.71;64.97
17615;BME280;8926;49.720;6.576;2023-03-01T05:11:40;100613.59;;;0.65;65.99
17615;BME280;8926;49.720;6.576;2023-03-01T05:14:06;100614.47;;;0.63;65.87
17615;BME280;8926;49.720;6.576;2023-03-01T05:16:32;100611.91;;;0.58;64.95
17615;BME280;8926;49.720;6.576;2023-03-01T05:18:58;100609.34;;;0.54;64.44
17615;BME280;8926;49.720;6.576;2023-03-01T05:21:24;100603.38;;;0.47;65.43
17615;BME280;8926;49.720;6.576;2023-03-01T05:23:50;100605.09;;;0.45;64.88
17615;BME280;8926;49.720;6.576;2023-03-01T05:26:17;100608.50;;;0.44;65.25
17615;BME280;8926;49.720;6.576;2023-03-01T05:28:44;100609.38;;;0.46;66.00
17615;BME280;8926;49.720;6.576;2023-03-01T05:31:09;100606.81;;;0.46;65.11
17615;BME280;8926;49.720;6.576;2023-03-01T05:33:39;100598.22;;;0.44;65.61
17615;BME280;8926;49.720;6.576;2023-03-01T05:36:08;100591.38;;;0.46;65.28
17615;BME280;8926;49.720;6.576;2023-03-01T05:38:35;100596.50;;;0.49;65.95
17615;BME280;8926;49.720;6.576;2023-03-01T05:41:00;100598.22;;;0.50;65.57
17615;BME280;8926;49.720;6.576;2023-03-01T05:43:25;100594.81;;;0.45;66.59
17615;BME280;8926;49.720;6.576;2023-03-01T05:45:51;100585.38;;;0.47;65.26
17615;BME280;8926;49.720;6.576;2023-03-01T05:48:16;100586.25;;;0.40;66.00
17615;BME280;8926;49.720;6.576;2023-03-01T05:50:45;100593.09;;;0.40;66.78
17615;BME280;8926;49.720;6.576;2023-03-01T05:53:18;100590.53;;;0.40;66.06
17615;BME280;8926;49.720;6.576;2023-03-01T05:55:45;100590.53;;;0.41;65.66
17615;BME280;8926;49.720;6.576;2023-03-01T05:58:14;100589.66;;;0.45;64.93
17615;BME280;8926;49.720;6.576;2023-03-01T06:00:41;100591.38;;;0.43;65.60
17615;BME280;8926;49.720;6.576;2023-03-01T06:03:06;100597.38;;;0.42;65.12
17615;BME280;8926;49.720;6.576;2023-03-01T06:05:34;100588.81;;;0.45;65.97
17615;BME280;8926;49.720;6.576;2023-03-01T06:08:00;100591.38;;;0.46;66.14
17615;BME280;8926;49.720;6.576;2023-03-01T06:10:25;100593.94;;;0.46;64.97
17615;BME280;8926;49.720;6.576;2023-03-01T06:12:51;100599.09;;;0.46;63.92
17615;BME280;8926;49.720;6.576;2023-03-01T06:15:16;100601.66;;;0.40;64.61
17615;BME280;8926;49.720;6.576;2023-03-01T06:17:44;100603.38;;;0.41;65.24
17615;BME280;8926;49.720;6.576;2023-03-01T06:20:14;100590.53;;;0.43;64.75
17615;BME280;8926;49.720;6.576;2023-03-01T06:22:41;100601.66;;;0.43;64.76
17615;BME280;8926;49.720;6.576;2023-03-01T06:25:07;100605.09;;;0.36;65.45
17615;BME280;8926;49.720;6.576;2023-03-01T06:27:33;100597.38;;;0.38;65.48
17615;BME280;8926;49.720;6.576;2023-03-01T06:29:59;100602.53;;;0.39;64.62
17615;BME280;8926;49.720;6.576;2023-03-01T06:32:24;100611.94;;;0.40;65.22
17615;BME280;8926;49.720;6.576;2023-03-01T06:34:49;100610.22;;;0.42;65.69
17615;BME280;8926;49.720;6.576;2023-03-01T06:37:15;100617.06;;;0.46;64.84
17615;BME280;8926;49.720;6.576;2023-03-01T06:39:40;100613.63;;;0.53;64.56
17615;BME280;8926;49.720;6.576;2023-03-01T06:42:07;100608.47;;;0.59;63.40
17615;BME280;8926;49.720;6.576;2023-03-01T06:44:33;100613.59;;;0.59;64.05
17615;BME280;8926;49.720;6.576;2023-03-01T06:46:58;100610.19;;;0.57;65.02
17615;BME280;8926;49.720;6.576;2023-03-01T06:49:27;100611.03;;;0.61;65.12
17615;BME280;8926;49.720;6.576;2023-03-01T06:51:52;100603.31;;;0.65;64.32
17615;BME280;8926;49.720;6.576;2023-03-01T06:54:18;100603.31;;;0.65;64.95
17615;BME280;8926;49.720;6.576;2023-03-01T06:56:46;100600.75;;;0.70;65.27
17615;BME280;8926;49.720;6.576;2023-03-01T06:59:11;100603.31;;;0.75;64.32
17615;BME280;8926;49.720;6.576;2023-03-01T07:01:37;100598.13;;;0.81;64.15
17615;BME280;8926;49.720;6.576;2023-03-01T07:04:02;100588.69;;;0.81;64.80
17615;BME280;8926;49.720;6.576;2023-03-01T07:06:27;100589.53;;;0.88;63.77
17615;BME280;8926;49.720;6.576;2023-03-01T07:08:53;100584.38;;;0.94;63.72
17615;BME280;8926;49.720;6.576;2023-03-01T07:11:18;100588.63;;;0.99;64.10
17615;BME280;8926;49.720;6.576;2023-03-01T07:13:43;100586.00;;;1.07;63.08
17615;BME280;8926;49.720;6.576;2023-03-01T07:16:09;100584.25;;;1.15;62.90
17615;BME280;8926;49.720;6.576;2023-03-01T07:18:34;100576.53;;;1.20;63.63
17615;BME280;8926;49.720;6.576;2023-03-01T07:21:04;100569.66;;;1.22;64.16
17615;BME280;8926;49.720;6.576;2023-03-01T07:23:30;100570.47;;;1.28;63.37
17615;BME280;8926;49.720;6.576;2023-03-01T07:25:56;100570.38;;;1.41;63.36
17615;BME280;8926;49.720;6.576;2023-03-01T07:28:24;100567.75;;;1.51;62.79
17615;BME280;8926;49.720;6.576;2023-03-01T07:30:50;100567.72;;;1.56;62.61
17615;BME280;8926;49.720;6.576;2023-03-01T07:33:17;100570.22;;;1.65;62.97
17615;BME280;8926;49.720;6.576;2023-03-01T07:35:42;100566.75;;;1.69;62.20
17615;BME280;8926;49.720;6.576;2023-03-01T07:38:08;100569.28;;;1.78;62.32
17615;BME280;8926;49.720;6.576;2023-03-01T07:40:33;100568.34;;;1.84;61.84
17615;BME280;8926;49.720;6.576;2023-03-01T07:42:59;100570.81;;;1.99;60.96
17615;BME280;8926;49.720;6.576;2023-03-01T07:45:25;100568.19;;;2.07;60.65
17615;BME280;8926;49.720;6.576;2023-03-01T07:47:51;100581.78;;;2.21;60.65
17615;BME280;8926;49.720;6.576;2023-03-01T07:50:17;100576.53;;;2.33;60.77
17615;BME280;8926;49.720;6.576;2023-03-01T07:52:45;100568.56;;;2.53;59.92
17615;BME280;8926;49.720;6.576;2023-03-01T07:55:11;100562.41;;;2.64;59.81
17615;BME280;8926;49.720;6.576;2023-03-01T07:57:36;100551.84;;;2.86;58.88
17615;BME280;8926;49.720;6.576;2023-03-01T08:00:01;100555.97;;;2.99;58.79
17615;BME280;8926;49.720;6.576;2023-03-01T08:02:27;100561.97;;;3.01;58.31
17615;BME280;8926;49.720;6.576;2023-03-01T08:04:55;100548.97;;;3.10;58.55
17615;BME280;8926;49.720;6.576;2023-03-01T08:07:20;100546.16;;;3.25;58.17
17615;BME280;8926;49.720;6.576;2023-03-01T08:09:45;100553.78;;;3.33;58.21
17615;BME280;8926;49.720;6.576;2023-03-01T08:12:10;100544.03;;;3.52;57.07
17615;BME280;8926;49.720;6.576;2023-03-01T08:14:36;100550.72;;;3.65;56.95
17615;BME280;8926;49.720;6.576;2023-03-01T08:17:01;100553.91;;;3.82;56.73
17615;BME280;8926;49.720;6.576;2023-03-01T08:19:28;100548.31;;;4.06;56.14
17615;BME280;8926;49.720;6.576;2023-03-01T08:21:53;100547.94;;;4.28;54.66
17615;BME280;8926;49.720;6.576;2023-03-01T08:24:19;100549.31;;;4.46;55.45
17615;BME280;8926;49.720;6.576;2023-03-01T08:26:44;100545.59;;;4.60;54.12
17615;BME280;8926;49.720;6.576;2023-03-01T08:29:09;100543.19;;;4.50;53.60
17615;BME280;8926;49.720;6.576;2023-03-01T08:31:38;100546.00;;;4.39;54.51
17615;BME280;8926;49.720;6.576;2023-03-01T08:34:07;100539.72;;;4.52;55.04
17615;BME280;8926;49.720;6.576;2023-03-01T08:36:37;100537.13;;;4.52;53.98
17615;BME280;8926;49.720;6.576;2023-03-01T08:39:04;100543.22;;;4.48;53.86
17615;BME280;8926;49.720;6.576;2023-03-01T08:41:29;100538.78;;;4.56;54.31
17615;BME280;8926;49.720;6.576;2023-03-01T08:43:54;100536.91;;;4.64;52.82
17615;BME280;8926;49.720;6.576;2023-03-01T08:46:34;100526.69;;;4.57;54.18
17615;BME280;8926;49.720;6.576;2023-03-01T08:49:03;100538.41;;;4.74;54.01
17615;BME280;8926;49.720;6.576;2023-03-01T08:51:29;100531.66;;;4.67;53.47
17615;BME280;8926;49.720;6.576;2023-03-01T08:53:57;100526.53;;;4.64;53.60
17615;BME280;8926;49.720;6.576;2023-03-01T08:56:22;100517.69;;;4.74;53.61
17615;BME280;8926;49.720;6.576;2023-03-01T08:58:48;100518.66;;;4.69;53.39
17615;BME280;8926;49.720;6.576;2023-03-01T09:01:16;100521.03;;;4.80;53.81
17615;BME280;8926;49.720;6.576;2023-03-01T09:03:42;100509.47;;;4.96;53.10
17615;BME280;8926;49.720;6.576;2023-03-01T09:06:08;100517.09;;;5.02;52.43
17615;BME280;8926;49.720;6.576;2023-03-01T09:08:37;100503.97;;;5.11;52.63
17615;BME280;8926;49.720;6.576;2023-03-01T09:11:05;100509.84;;;5.19;51.53
17615;BME280;8926;49.720;6.576;2023-03-01T09:13:31;100498.41;;;5.28;51.45
17615;BME280;8926;49.720;6.576;2023-03-01T09:15:58;100495.50;;;5.41;51.74
17615;BME280;8926;49.720;6.576;2023-03-01T09:18:23;100486.84;;;5.42;51.56
17615;BME280;8926;49.720;6.576;2023-03-01T09:20:48;100491.97;;;5.45;51.69
17615;BME280;8926;49.720;6.576;2023-03-01T09:23:14;100493.59;;;5.48;50.35
17615;BME280;8926;49.720;6.576;2023-03-01T09:25:39;100486.06;;;5.39;51.56
17615;BME280;8926;49.720;6.576;2023-03-01T09:28:04;100492.16;;;5.36;51.22
17615;BME280;8926;49.720;6.576;2023-03-01T09:30:30;100487.13;;;5.30;51.25
17615;BME280;8926;49.720;6.576;2023-03-01T09:32:56;100487.13;;;5.30;50.81
17615;BME280;8926;49.720;6.576;2023-03-01T09:35:21;100481.81;;;5.36;50.78
17615;BME280;8926;49.720;6.576;2023-03-01T09:37:48;100480.22;;;5.29;50.08
17615;BME280;8926;49.720;6.576;2023-03-01T09:40:17;100478.38;;;5.34;50.69
17615;BME280;8926;49.720;6.576;2023-03-01T09:42:53;100474.72;;;5.44;51.88
17615;BME280;8926;49.720;6.576;2023-03-01T09:45:29;100478.00;;;5.50;50.89
17615;BME280;8926;49.720;6.576;2023-03-01T09:47:58;100472.13;;;5.77;50.85
17615;BME280;8926;49.720;6.576;2023-03-01T09:50:34;100462.28;;;6.24;49.13
17615;BME280;8926;49.720;6.576;2023-03-01T09:53:07;100450.31;;;6.78;49.19
17615;BME280;8926;49.720;6.576;2023-03-01T10:00:49;100455.03;;;7.49;46.45
17615;BME280;8926;49.720;6.576;2023-03-01T10:03:28;100457.91;;;7.67;45.53
17615;BME280;8926;49.720;6.576;2023-03-01T10:06:06;100454.72;;;8.08;46.12
17615;BME280;8926;49.720;6.576;2023-03-01T10:08:50;100454.13;;;8.50;45.62
17615;BME280;8926;49.720;6.576;2023-03-01T10:11:26;100442.63;;;8.79;44.05
17615;BME280;8926;49.720;6.576;2023-03-01T10:14:16;100444.53;;;8.97;43.00
17615;BME280;8926;49.720;6.576;2023-03-01T10:16:54;100428.59;;;9.05;43.64
17615;BME280;8926;49.720;6.576;2023-03-01T10:22:31;100419.31;;;9.19;42.62
17615;BME280;8926;49.720;6.576;2023-03-01T10:24:58;100416.78;;;9.38;43.13
17615;BME280;8926;49.720;6.576;2023-03-01T10:27:44;100408.69;;;9.24;42.42
17615;BME280;8926;49.720;6.576;2023-03-01T10:32:57;100408.16;;;9.58;42.36
17615;BME280;8926;49.720;6.576;2023-03-01T10:35:27;100394.19;;;9.59;41.91
17615;BME280;8926;49.720;6.576;2023-03-01T10:37:58;100381.47;;;9.72;41.26
17615;BME280;8926;49.720;6.576;2023-03-01T10:40:27;100388.19;;;9.77;42.32
17615;BME280;8926;49.720;6.576;2023-03-01T10:42:53;100383.09;;;9.74;41.90
17615;BME280;8926;49.720;6.576;2023-03-01T10:45:38;100392.00;;;9.89;41.95
17615;BME280;8926;49.720;6.576;2023-03-01T10:48:17;100381.44;;;9.92;40.87
17615;BME280;8926;49.720;6.576;2023-03-01T10:53:41;100389.03;;;9.78;42.19
17615;BME280;8926;49.720;6.576;2023-03-01T10:56:12;100373.63;;;9.92;41.04
17615;BME280;8926;49.720;6.576;2023-03-01T10:58:40;100379.22;;;10.03;41.09
17615;BME280;8926;49.720;6.576;2023-03-01T11:01:24;100377.25;;;10.08;41.04
17615;BME280;8926;49.720;6.576;2023-03-01T11:06:30;100367.22;;;9.99;40.39
17615;BME280;8926;49.720;6.576;2023-03-01T11:08:55;100363.56;;;10.03;40.66
17615;BME280;8926;49.720;6.576;2023-03-01T11:16:38;100366.31;;;10.00;41.31
17615;BME280;8926;49.720;6.576;2023-03-01T11:22:02;100348.78;;;10.23;40.91
17615;BME280;8926;49.720;6.576;2023-03-01T11:24:47;100334.81;;;10.24;41.18
17615;BME280;8926;49.720;6.576;2023-03-01T11:27:21;100333.97;;;10.23;40.76
17615;BME280;8926;49.720;6.576;2023-03-01T11:29:59;100318.22;;;10.25;40.84
17615;BME280;8926;49.720;6.576;2023-03-01T11:32:29;100322.81;;;10.19;40.93
17615;BME280;8926;49.720;6.576;2023-03-01T11:35:05;100322.69;;;10.23;40.87
17615;BME280;8926;49.720;6.576;2023-03-01T11:37:52;100322.41;;;10.29;40.86
17615;BME280;8926;49.720;6.576;2023-03-01T11:40:40;100317.44;;;10.23;40.33
17615;BME280;8926;49.720;6.576;2023-03-01T11:43:16;100318.13;;;10.07;40.62
17615;BME280;8926;49.720;6.576;2023-03-01T11:45:51;100313.31;;;9.98;40.47
17615;BME280;8926;49.720;6.576;2023-03-01T11:51:09;100295.13;;;10.15;41.08
17615;BME280;8926;49.720;6.576;2023-03-01T11:53:57;100288.06;;;10.17;41.11
17615;BME280;8926;49.720;6.576;2023-03-01T11:56:29;100277.88;;;10.32;41.07
17615;BME280;8926;49.720;6.576;2023-03-01T12:10:26;100261.00;;;10.39;41.00
17615;BME280;8926;49.720;6.576;2023-03-01T12:16:08;100259.72;;;10.29;40.63
17615;BME280;8926;49.720;6.576;2023-03-01T12:18:50;100253.41;;;10.14;40.59
17615;BME280;8926;49.720;6.576;2023-03-01T12:35:54;100233.41;;;9.77;41.67
17615;BME280;8926;49.720;6.576;2023-03-01T12:38:31;100223.03;;;9.57;41.84
17615;BME280;8926;49.720;6.576;2023-03-01T12:46:28;100203.78;;;9.78;41.72
17615;BME280;8926;49.720;6.576;2023-03-01T12:49:07;100210.91;;;9.74;41.59
17615;BME280;8926;49.720;6.576;2023-03-01T12:51:34;100214.22;;;9.78;42.11
17615;BME280;8926;49.720;6.576;2023-03-01T12:54:38;100208.88;;;9.81;41.87
17615;BME280;8926;49.720;6.576;2023-03-01T12:57:06;100194.41;;;9.74;41.57
17615;BME280;8926;49.720;6.576;2023-03-01T12:59:58;100199.25;;;9.63;41.83
17615;BME280;8926;49.720;6.576;2023-03-01T13:02:40;100181.16;;;9.60;42.00
17615;BME280;8926;49.720;6.576;2023-03-01T13:05:36;100179.53;;;9.57;42.36
17615;BME280;8926;49.720;6.576;2023-03-01T13:08:22;100178.25;;;9.47;42.29
17615;BME280;8926;49.720;6.576;2023-03-01T13:10:53;100175.06;;;9.40;42.16
17615;BME280;8926;49.720;6.576;2023-03-01T13:13:26;100177.06;;;9.35;42.42
17615;BME280;8926;49.720;6.576;2023-03-01T13:15:52;100166.31;;;9.41;42.41
17615;BME280;8926;49.720;6.576;2023-03-01T13:20:47;100160.25;;;9.22;42.83
17615;BME280;8926;49.720;6.576;2023-03-01T13:26:08;100157.66;;;9.41;42.90
17615;BME280;8926;49.720;6.576;2023-03-01T13:33:54;100167.69;;;9.31;42.76
17615;BME280;8926;49.720;6.576;2023-03-01T13:36:46;100158.56;;;9.21;43.38
17615;BME280;8926;49.720;6.576;2023-03-01T13:41:55;100165.91;;;9.32;43.60
17615;BME280;8926;49.720;6.576;2023-03-01T13:44:33;100153.22;;;9.24;42.90
17615;BME280;8926;49.720;6.576;2023-03-01T13:47:15;100164.16;;;9.12;43.13
17615;BME280;8926;49.720;6.576;2023-03-01T13:49:48;100170.22;;;9.12;43.25
17615;BME280;8926;49.720;6.576;2023-03-01T13:52:35;100170.41;;;9.09;43.23
17615;BME280;8926;49.720;6.576;2023-03-01T13:55:19;100167.00;;;9.07;43.30
17615;BME280;8926;49.720;6.576;2023-03-01T13:57:53;100163.28;;;8.93;43.98
17615;BME280;8926;49.720;6.576;2023-03-01T14:00:34;100157.75;;;9.00;43.40
17615;BME280;8926;49.720;6.576;2023-03-01T14:03:04;100156.25;;;8.95;43.66
17615;BME280;8926;49.720;6.576;2023-03-01T14:05:32;100146.22;;;8.85;44.19
17615;BME280;8926;49.720;6.576;2023-03-01T14:07:57;100151.84;;;8.76;44.00
17615;BME280;8926;49.720;6.576;2023-03-01T14:10:27;100136.34;;;8.73;44.32
17615;BME280;8926;49.720;6.576;2023-03-01T14:15:38;100137.63;;;8.63;43.86
17615;BME280;8926;49.720;6.576;2023-03-01T14:18:21;100143.75;;;8.62;44.29
17615;BME280;8926;49.720;6.576;2023-03-01T14:20:49;100138.69;;;8.59;43.85
17615;BME280;8926;49.720;6.576;2023-03-01T14:23:20;100126.44;;;8.61;44.40
17615;BME280;8926;49.720;6.576;2023-03-01T14:25:51;100135.03;;;8.63;44.06
17615;BME280;8926;49.720;6.576;2023-03-01T14:28:20;100130.88;;;8.59;44.60
17615;BME280;8926;49.720;6.576;2023-03-01T14:30:49;100119.81;;;8.54;44.49
17615;BME280;8926;49.720;6.576;2023-03-01T14:33:23;100133.75;;;8.53;44.46
17615;BME280;8926;49.720;6.576;2023-03-01T14:40:58;100100.94;;;8.49;44.32
17615;BME280;8926;49.720;6.576;2023-03-01T14:43:24;100107.59;;;8.56;44.19
17615;BME280;8926;49.720;6.576;2023-03-01T14:45:51;100109.53;;;8.51;44.22
17615;BME280;8926;49.720;6.576;2023-03-01T14:48:17;100107.59;;;8.56;44.36
17615;BME280;8926;49.720;6.576;2023-03-01T14:50:44;100105.88;;;8.55;44.40